Time;durP1;ratioP1;P1;durP2;ratioP2;P2;SDS_P1;SDS_P2;PMS_P1;PMS_P2;Temp;Humidity;BMP_temperature;BMP_pressure;BME280_temperature;BME280_humidity;BME280_pressure;Samples;Min_cycle;Max_cycle;Signal;HPM_P1;HPM_P2
2022/05/02 00:01:03;;;;;;;10.02;8.60;;;18.30;54.50;;;;;;5057616;28;20028;-84
2022/05/02 00:03:30;;;;;;;11.15;9.00;;;18.00;55.10;;;;;;5039332;28;20033;-84
2022/05/02 00:05:56;;;;;;;10.48;8.77;;;17.70;55.70;;;;;;5038611;28;20013;-83
2022/05/02 00:08:22;;;;;;;14.07;10.10;;;17.90;55.40;;;;;;5036139;28;20120;-83
2022/05/02 00:10:48;;;;;;;11.70;9.23;;;17.80;55.50;;;;;;5056603;28;20092;-86
2022/05/02 00:13:13;;;;;;;10.85;8.95;;;17.70;55.70;;;;;;5056370;28;20395;-87
2022/05/02 00:15:39;;;;;;;12.25;8.88;;;17.50;56.50;;;;;;5056119;28;20053;-85
2022/05/02 00:18:05;;;;;;;11.35;9.20;;;17.60;55.80;;;;;;5037505;28;20025;-82
2022/05/02 00:20:34;;;;;;;14.18;8.90;;;17.80;55.50;;;;;;5056293;28;20052;-83
2022/05/02 00:23:08;;;;;;;11.57;8.43;;;18.00;55.30;;;;;;5055369;28;20055;-81
2022/05/02 00:25:33;;;;;;;11.40;8.18;;;17.20;57.00;;;;;;5038212;28;20079;-86
2022/05/02 00:27:59;;;;;;;10.30;8.30;;;17.00;57.70;;;;;;5037734;28;20418;-83
2022/05/02 00:30:26;;;;;;;12.00;9.25;;;17.10;57.40;;;;;;5038686;28;20433;-82
2022/05/02 00:32:52;;;;;;;10.73;8.73;;;17.00;57.80;;;;;;5055887;28;20016;-83
2022/05/02 00:35:18;;;;;;;11.50;9.23;;;16.70;57.70;;;;;;5038142;28;20017;-88
2022/05/02 00:37:44;;;;;;;12.77;9.20;;;17.10;57.60;;;;;;5037136;28;20021;-82
2022/05/02 00:40:12;;;;;;;12.20;9.48;;;17.50;56.60;;;;;;5037809;28;20029;-81
2022/05/02 00:42:39;;;;;;;10.65;8.82;;;17.80;55.80;;;;;;5056382;28;20329;-81
2022/05/02 00:45:09;;;;;;;12.57;9.50;;;18.20;55.10;;;;;;5055451;28;20045;-81
2022/05/02 00:47:36;;;;;;;15.75;9.07;;;18.10;55.60;;;;;;5055107;28;20044;-81
2022/05/02 00:50:04;;;;;;;11.25;9.43;;;18.10;55.40;;;;;;5055590;28;20033;-81
2022/05/02 00:52:30;;;;;;;10.68;8.75;;;18.00;54.80;;;;;;5055495;28;20040;-81
2022/05/02 00:54:56;;;;;;;12.07;8.30;;;17.90;54.70;;;;;;5037695;28;20021;-83
2022/05/02 00:57:23;;;;;;;12.60;8.98;;;18.00;54.60;;;;;;5036266;28;20068;-81
2022/05/02 00:59:48;;;;;;;12.68;9.25;;;17.80;55.10;;;;;;5037240;28;20021;-81
2022/05/02 01:02:15;;;;;;;14.13;9.88;;;17.90;54.70;;;;;;5054857;28;20367;-80
2022/05/02 01:04:42;;;;;;;12.15;9.60;;;17.80;55.60;;;;;;5037144;28;20029;-88
2022/05/02 01:07:09;;;;;;;11.05;8.98;;;17.50;55.70;;;;;;5037037;28;20027;-80
2022/05/02 01:09:38;;;;;;;12.10;9.13;;;17.60;55.80;;;;;;5037702;28;20036;-88
2022/05/02 01:12:06;;;;;;;13.68;8.68;;;17.70;55.30;;;;;;5055588;28;20079;-85
2022/05/02 01:14:36;;;;;;;11.75;9.50;;;17.80;55.20;;;;;;5037604;28;20108;-87
2022/05/02 01:17:16;;;;;;;11.05;9.38;;;17.90;55.00;;;;;;5055316;28;20442;-89
2022/05/02 01:19:43;;;;;;;11.77;9.93;;;18.00;55.30;;;;;;5037792;28;20021;-87
2022/05/02 01:22:09;;;;;;;10.57;8.68;;;17.70;56.40;;;;;;5037685;28;20499;-87
2022/05/02 01:24:46;;;;;;;10.90;9.23;;;17.80;55.90;;;;;;5054165;28;20052;-80
2022/05/02 01:27:12;;;;;;;11.00;8.68;;;17.90;54.90;;;;;;5054068;28;20013;-80
2022/05/02 01:29:44;;;;;;;10.63;9.00;;;17.50;56.70;;;;;;5055051;28;20025;-80
2022/05/02 01:32:12;;;;;;;14.82;9.65;;;17.50;56.70;;;;;;5037501;28;20488;-80
2022/05/02 01:34:42;;;;;;;10.95;8.77;;;17.50;55.70;;;;;;5028671;28;20364;-90
2022/05/02 01:37:13;;;;;;;10.88;8.75;;;17.50;55.20;;;;;;5017126;28;20056;-81
2022/05/02 01:39:38;;;;;;;;;;;17.30;55.40;;;;;;5018238;28;20052;-92
2022/05/02 01:42:07;;;;;;;12.32;9.77;;;17.30;56.30;;;;;;5035332;28;19968;-80
2022/05/02 01:44:34;;;;;;;11.68;9.15;;;17.10;56.10;;;;;;5042551;28;20090;-80
2022/05/02 01:47:00;;;;;;;12.30;9.35;;;17.30;55.90;;;;;;5054956;28;20029;-80
2022/05/02 01:49:25;;;;;;;10.77;9.18;;;17.10;57.20;;;;;;5036936;28;20075;-90
2022/05/02 01:51:51;;;;;;;12.57;10.15;;;17.10;56.40;;;;;;5053923;28;20016;-88
2022/05/02 01:54:17;;;;;;;10.52;8.77;;;17.00;56.50;;;;;;5035358;28;20025;-87
2022/05/02 01:56:44;;;;;;;12.07;10.32;;;17.00;57.40;;;;;;5054379;28;20032;-86
2022/05/02 01:59:10;;;;;;;11.07;8.93;;;17.20;57.20;;;;;;5054129;28;20081;-80
2022/05/02 02:01:36;;;;;;;12.20;9.73;;;17.20;57.10;;;;;;5036056;28;20028;-87
2022/05/02 02:06:48;;;;;;;11.70;10.05;;;17.40;57.10;;;;;;5054686;28;20027;-90
2022/05/02 02:09:14;;;;;;;13.85;9.98;;;17.50;56.10;;;;;;5035877;28;20117;-86
2022/05/02 02:11:39;;;;;;;12.63;9.07;;;17.60;56.10;;;;;;5036154;28;20112;-80
2022/05/02 02:14:05;;;;;;;12.07;10.20;;;17.70;55.70;;;;;;5054464;28;20029;-80
2022/05/02 02:16:31;;;;;;;13.55;10.73;;;17.70;55.60;;;;;;5035920;28;20025;-81
2022/05/02 02:18:56;;;;;;;10.60;8.88;;;17.80;55.50;;;;;;5036596;28;20429;-82
2022/05/02 02:21:23;;;;;;;12.18;8.98;;;18.00;55.00;;;;;;5029616;28;20570;-81
2022/05/02 02:23:48;;;;;;;11.75;9.45;;;17.80;55.30;;;;;;5034191;28;20048;-81
2022/05/02 02:26:14;;;;;;;11.38;8.68;;;17.40;56.40;;;;;;5034742;28;20013;-93
2022/05/02 02:28:41;;;;;;;11.65;10.00;;;17.50;56.30;;;;;;5015724;28;20025;-82
2022/05/02 02:31:06;;;;;;;11.40;9.57;;;17.20;57.90;;;;;;5052479;28;20020;-81
2022/05/02 02:33:32;;;;;;;12.15;9.90;;;17.20;58.00;;;;;;5036123;28;20024;-85
2022/05/02 02:35:59;;;;;;;12.80;9.63;;;17.40;57.90;;;;;;5053991;28;20021;-80
2022/05/02 02:38:25;;;;;;;11.25;9.50;;;17.70;56.90;;;;;;5035984;28;20025;-84
2022/05/02 02:40:51;;;;;;;10.70;9.02;;;17.90;57.00;;;;;;5035505;28;20039;-80
2022/05/02 02:43:16;;;;;;;11.55;9.50;;;18.20;56.40;;;;;;5035765;28;20029;-80
2022/05/02 02:45:42;;;;;;;11.38;8.88;;;18.30;55.80;;;;;;5036001;28;20059;-91
2022/05/02 02:48:08;;;;;;;10.20;8.27;;;18.40;55.60;;;;;;5035641;28;20021;-80
2022/05/02 02:50:34;;;;;;;10.60;8.98;;;18.60;55.50;;;;;;5053006;28;20021;-79
2022/05/02 02:53:00;;;;;;;10.27;8.70;;;18.60;55.10;;;;;;5053521;28;20021;-85
2022/05/02 02:55:25;;;;;;;10.77;8.70;;;18.30;55.80;;;;;;5036323;28;20099;-90
2022/05/02 02:57:51;;;;;;;9.95;8.50;;;18.00;56.50;;;;;;5036470;28;20436;-86
2022/05/02 03:00:17;;;;;;;11.38;8.80;;;17.90;56.50;;;;;;5036135;28;20025;-87
2022/05/02 03:02:43;;;;;;;10.10;8.32;;;17.80;56.60;;;;;;5035834;28;20372;-88
2022/05/02 03:07:54;;;;;;;10.13;8.10;;;18.20;56.20;;;;;;5058657;28;20031;-87
2022/05/02 03:10:20;;;;;;;10.40;8.55;;;18.30;55.80;;;;;;5039982;28;20028;-88
2022/05/02 03:12:46;;;;;;;10.57;8.07;;;18.20;56.00;;;;;;5040037;28;20024;-85
2022/05/02 03:15:11;;;;;;;10.10;7.80;;;18.20;56.30;;;;;;5040225;28;20112;-86
2022/05/02 03:17:37;;;;;;;11.05;8.82;;;17.00;57.40;;;;;;5058150;28;20100;-92
2022/05/02 03:20:04;;;;;;;11.73;8.77;;;17.00;59.20;;;;;;5039623;28;20032;-91
2022/05/02 03:22:30;;;;;;;11.27;9.38;;;17.50;57.60;;;;;;5039543;28;20017;-83
2022/05/02 03:24:55;;;;;;;13.15;9.57;;;17.90;56.90;;;;;;5033062;28;20040;-81
2022/05/02 03:27:21;;;;;;;11.98;8.70;;;17.80;55.90;;;;;;5050597;28;20032;-88
2022/05/02 03:29:47;;;;;;;11.45;8.38;;;16.80;57.30;;;;;;5057818;28;20382;-84
2022/05/02 03:32:12;;;;;;;13.63;9.57;;;17.00;57.30;;;;;;5039259;28;20021;-84
2022/05/02 03:34:38;;;;;;;11.82;9.65;;;17.50;56.90;;;;;;5039291;28;20052;-87
2022/05/02 03:37:04;;;;;;;14.23;10.98;;;17.90;56.30;;;;;;5057315;28;20020;-88
2022/05/02 03:39:30;;;;;;;14.13;11.23;;;18.10;55.90;;;;;;5040055;28;20051;-91
2022/05/02 03:41:56;;;;;;;13.85;10.38;;;18.40;55.50;;;;;;5039646;28;20021;-90
2022/05/02 03:44:21;;;;;;;17.08;10.40;;;18.80;54.80;;;;;;5039495;28;20045;-90
2022/05/02 03:46:49;;;;;;;11.82;10.25;;;19.10;54.10;;;;;;5036324;28;20116;-91
2022/05/02 03:49:15;;;;;;;12.93;10.18;;;19.20;53.50;;;;;;5039076;28;20024;-89
2022/05/02 03:51:40;;;;;;;14.32;9.52;;;19.20;53.70;;;;;;5039515;28;20021;-89
2022/05/02 03:54:06;;;;;;;13.93;10.50;;;19.20;53.90;;;;;;5057583;28;20078;-92
2022/05/02 03:56:32;;;;;;;11.95;9.82;;;19.10;54.30;;;;;;5039224;28;20024;-88
2022/05/02 03:58:57;;;;;;;14.48;9.88;;;19.20;53.80;;;;;;5039371;28;20071;-88
2022/05/02 04:01:23;;;;;;;12.63;9.60;;;19.20;54.90;;;;;;5052085;28;20036;-90
2022/05/02 04:03:49;;;;;;;14.75;9.07;;;19.40;54.30;;;;;;5034807;28;20029;-88
2022/05/02 04:06:15;;;;;;;15.13;9.57;;;19.20;53.90;;;;;;5053578;28;20055;-86
2022/05/02 04:08:41;;;;;;;14.13;9.43;;;19.30;54.20;;;;;;5057401;28;20493;-88
2022/05/02 04:11:07;;;;;;;14.35;9.93;;;19.40;54.40;;;;;;5057044;28;20025;-86
2022/05/02 04:13:33;;;;;;;14.35;9.13;;;19.40;54.40;;;;;;5052594;28;20028;-85
2022/05/02 04:15:58;;;;;;;13.13;9.90;;;19.50;54.00;;;;;;5037346;28;20418;-81
2022/05/02 04:18:24;;;;;;;12.20;8.75;;;19.30;55.10;;;;;;5038017;28;20016;-81
2022/05/02 04:20:50;;;;;;;11.02;8.70;;;19.40;54.70;;;;;;5056754;28;20028;-82
2022/05/02 04:23:15;;;;;;;11.48;9.00;;;19.50;54.50;;;;;;5055841;28;20025;-81
2022/05/02 04:25:41;;;;;;;12.07;9.30;;;19.60;54.50;;;;;;5047047;28;20033;-90
2022/05/02 04:28:08;;;;;;;11.63;8.95;;;19.70;54.60;;;;;;5037752;28;20421;-88
2022/05/02 04:30:34;;;;;;;12.07;9.23;;;19.70;54.90;;;;;;5038349;28;20021;-84
2022/05/02 04:33:01;;;;;;;10.98;9.30;;;19.70;55.10;;;;;;5037291;28;20108;-80
2022/05/02 04:35:27;;;;;;;10.82;9.30;;;19.70;55.10;;;;;;5025233;28;20147;-88
2022/05/02 04:37:53;;;;;;;11.07;9.75;;;19.60;55.60;;;;;;5033638;28;20031;-89
2022/05/02 04:40:18;;;;;;;10.57;9.48;;;19.60;56.10;;;;;;5056006;28;20100;-87
2022/05/02 04:42:44;;;;;;;9.65;8.35;;;19.60;55.90;;;;;;5037230;28;20122;-91
2022/05/02 04:45:10;;;;;;;11.60;9.10;;;19.60;55.40;;;;;;5037626;28;20041;-84
2022/05/02 04:47:36;;;;;;;10.65;8.82;;;19.60;55.50;;;;;;5037225;28;20032;-84
2022/05/02 04:50:02;;;;;;;11.90;9.05;;;19.60;55.70;;;;;;5055773;28;20025;-89
2022/05/02 04:52:27;;;;;;;11.75;9.32;;;19.80;55.20;;;;;;5055894;28;20456;-85
2022/05/02 04:54:53;;;;;;;11.27;8.80;;;19.90;55.60;;;;;;5055432;28;20035;-86
2022/05/02 04:57:19;;;;;;;12.98;9.23;;;19.80;56.50;;;;;;5033898;28;20040;-89
2022/05/02 04:59:44;;;;;;;9.73;8.57;;;19.80;56.20;;;;;;5025300;28;20017;-83
2022/05/02 05:02:10;;;;;;;12.50;8.90;;;20.20;55.80;;;;;;5030626;28;20505;-86
2022/05/02 05:04:36;;;;;;;11.00;8.20;;;20.30;55.20;;;;;;5038082;28;20590;-86
2022/05/02 05:07:02;;;;;;;9.93;8.60;;;20.40;55.70;;;;;;5037595;28;20017;-89
2022/05/02 05:09:28;;;;;;;10.75;8.98;;;20.10;56.30;;;;;;5055209;28;20031;-85
2022/05/02 05:12:11;;;;;;;11.02;9.10;;;20.10;57.00;;;;;;5037766;28;20365;-88
2022/05/02 05:18:01;;;;;;;10.23;8.57;;;20.70;55.50;;;;;;5054171;28;20028;-88
2022/05/02 05:20:54;;;;;;;10.60;8.05;;;21.20;53.90;;;;;;5033633;28;20017;-88
2022/05/02 05:24:08;;;;;;;10.07;7.38;;;21.40;52.80;;;;;;5036718;28;20044;-89
2022/05/02 05:26:58;;;;;;;10.57;7.10;;;21.70;51.70;;;;;;5037374;28;20039;-88
2022/05/02 05:30:00;;;;;;;9.30;7.27;;;22.00;50.80;;;;;;5054768;28;20067;-81
2022/05/02 05:32:44;;;;;;;9.80;7.30;;;22.20;49.30;;;;;;5036829;28;20266;-84
2022/05/02 05:35:14;;;;;;;10.02;7.10;;;21.90;49.20;;;;;;5051607;28;20463;-84
2022/05/02 05:38:01;;;;;;;9.10;7.10;;;21.20;49.80;;;;;;5038232;28;20402;-87
2022/05/02 05:40:33;;;;;;;9.25;6.93;;;21.60;49.50;;;;;;5019811;28;20029;-87
2022/05/02 05:43:05;;;;;;;8.80;6.38;;;22.00;48.70;;;;;;5030485;28;20036;-86
2022/05/02 05:45:42;;;;;;;8.13;6.55;;;22.20;48.30;;;;;;5034087;28;20045;-83
2022/05/02 05:48:10;;;;;;;8.50;6.22;;;22.50;47.70;;;;;;5016882;28;20552;-86
2022/05/02 05:50:49;;;;;;;7.55;6.10;;;22.30;47.30;;;;;;5047431;28;20077;-87
2022/05/02 05:53:35;;;;;;;8.43;6.38;;;22.40;47.40;;;;;;5036799;28;20021;-86
2022/05/02 05:56:10;;;;;;;12.98;6.70;;;22.20;47.00;;;;;;5036093;28;20463;-87
2022/05/02 05:58:54;;;;;;;7.88;6.13;;;21.60;48.00;;;;;;5052403;28;20078;-86
2022/05/02 06:01:31;;;;;;;8.90;6.53;;;21.50;47.10;;;;;;5053102;28;20471;-83
2022/05/02 06:04:04;;;;;;;9.45;6.30;;;21.00;48.70;;;;;;5053451;28;20033;-85
2022/05/02 06:06:31;;;;;;;10.55;6.40;;;21.70;49.80;;;;;;5034793;28;20572;-81
2022/05/02 06:09:01;;;;;;;13.20;6.60;;;21.60;47.20;;;;;;5052545;28;20074;-85
2022/05/02 06:11:28;;;;;;;9.35;6.28;;;20.60;49.40;;;;;;5035189;28;20464;-85
2022/05/02 06:13:59;;;;;;;7.28;6.07;;;21.00;49.10;;;;;;5035221;28;20028;-83
2022/05/02 06:19:17;;;;;;;8.43;6.38;;;22.10;47.20;;;;;;5053083;28;20058;-83
2022/05/02 06:21:44;;;;;;;9.18;6.35;;;21.40;47.90;;;;;;5035709;28;20013;-83
2022/05/02 06:24:11;;;;;;;8.15;6.18;;;21.30;47.80;;;;;;5035865;28;20045;-83
2022/05/02 06:26:41;;;;;;;9.65;6.40;;;21.00;48.60;;;;;;5053555;28;20092;-87
2022/05/02 06:29:11;;;;;;;7.88;6.40;;;21.60;48.50;;;;;;5036035;28;20410;-86
2022/05/02 06:31:44;;;;;;;8.90;6.22;;;22.20;47.40;;;;;;5054004;28;20368;-83
2022/05/02 06:34:11;;;;;;;9.52;6.70;;;22.30;45.80;;;;;;5035626;28;20032;-83
2022/05/02 06:36:47;;;;;;;8.18;6.70;;;21.90;47.90;;;;;;5053098;28;20021;-84
2022/05/02 06:39:28;;;;;;;8.50;6.38;;;22.30;48.20;;;;;;5035423;28;20074;-83
2022/05/02 06:42:00;;;;;;;10.73;7.15;;;23.20;46.70;;;;;;5035405;28;20459;-86
2022/05/02 06:44:31;;;;;;;11.45;6.85;;;23.50;44.80;;;;;;5052880;28;20505;-78
2022/05/02 06:47:15;;;;;;;8.05;5.85;;;24.00;44.20;;;;;;5035655;28;20359;-83
2022/05/02 06:49:44;;;;;;;9.85;5.95;;;24.30;44.60;;;;;;5035828;28;20086;-83
2022/05/02 06:52:11;;;;;;;8.40;6.32;;;24.30;45.50;;;;;;5053112;28;20021;-82
2022/05/02 06:54:53;;;;;;;7.97;6.03;;;24.20;44.50;;;;;;5053287;28;20410;-81
2022/05/02 06:57:37;;;;;;;9.63;5.80;;;24.50;44.60;;;;;;5053150;28;20067;-78
2022/05/02 07:00:10;;;;;;;7.97;5.85;;;24.60;43.20;;;;;;5035111;28;20021;-80
2022/05/02 07:02:44;;;;;;;7.85;5.50;;;24.60;43.80;;;;;;5052942;28;20096;-81
2022/05/02 07:05:54;;;;;;;10.38;5.72;;;24.80;43.20;;;;;;5053110;28;20040;-86
2022/05/02 07:08:28;;;;;;;8.52;5.60;;;24.40;43.90;;;;;;4994581;28;20025;-78
2022/05/02 07:11:05;;;;;;;7.78;5.55;;;24.70;43.80;;;;;;4994940;28;20128;-81
2022/05/02 07:14:03;;;;;;;6.60;5.10;;;24.50;43.90;;;;;;4994445;28;20034;-79
2022/05/02 07:16:36;;;;;;;7.13;5.38;;;23.60;43.70;;;;;;5003178;28;20038;-86
2022/05/02 07:19:26;;;;;;;7.30;5.20;;;23.50;43.80;;;;;;5010738;28;20034;-83
2022/05/02 07:22:23;;;;;;;7.75;5.30;;;23.30;44.40;;;;;;4994670;28;20025;-85
2022/05/02 07:25:18;;;;;;;7.93;5.07;;;23.10;44.60;;;;;;4952790;29;20055;-80
2022/05/02 07:28:16;;;;;;;8.75;5.32;;;22.90;44.40;;;;;;4951874;28;20256;-81
2022/05/02 07:30:45;;;;;;;6.93;4.78;;;22.90;43.80;;;;;;4952692;29;20082;-78
2022/05/02 07:33:12;;;;;;;7.80;4.95;;;23.40;44.00;;;;;;4952747;29;20082;-75
2022/05/02 07:35:39;;;;;;;7.10;5.40;;;24.10;44.00;;;;;;4936930;29;20035;-79
2022/05/02 07:38:05;;;;;;;6.90;4.90;;;24.00;43.70;;;;;;4936256;29;20031;-85
2022/05/02 07:40:33;;;;;;;7.15;4.85;;;23.20;43.50;;;;;;4952805;29;20016;-83
2022/05/02 07:43:00;;;;;;;7.25;5.20;;;22.00;44.40;;;;;;4936513;29;20087;-87
2022/05/02 07:45:30;;;;;;;6.97;4.80;;;21.60;45.40;;;;;;4966966;28;20047;-85
2022/05/02 07:48:04;;;;;;;7.60;4.85;;;21.50;47.00;;;;;;4971849;28;20067;-79
2022/05/02 07:50:30;;;;;;;6.32;4.88;;;21.60;46.00;;;;;;4972481;28;20035;-82
2022/05/02 07:52:58;;;;;;;12.60;5.13;;;21.80;47.20;;;;;;4958652;28;20018;-81
2022/05/02 07:55:24;;;;;;;7.53;5.15;;;22.10;47.10;;;;;;4958869;28;20034;-83
2022/05/02 07:57:51;;;;;;;7.72;5.40;;;22.30;46.60;;;;;;4975339;28;20023;-81
2022/05/02 08:00:17;;;;;;;19.50;12.45;;;22.30;47.00;;;;;;4958620;28;20018;-85
2022/05/02 08:02:43;;;;;;;8.85;6.07;;;23.10;47.90;;;;;;5035294;28;20079;-75
2022/05/02 08:05:10;;;;;;;7.25;4.88;;;23.70;45.40;;;;;;5038172;28;20127;-80
2022/05/02 08:07:41;;;;;;;9.10;5.82;;;23.30;46.40;;;;;;5055279;28;20048;-78
2022/05/02 08:10:14;;;;;;;6.68;5.00;;;24.00;47.80;;;;;;5038051;28;20021;-88
2022/05/02 08:12:50;;;;;;;7.10;4.88;;;23.90;46.00;;;;;;5055592;28;20083;-87
2022/05/02 08:15:22;;;;;;;10.05;4.40;;;23.40;46.50;;;;;;5037972;28;20021;-78
2022/05/02 08:18:46;;;;;;;12.35;4.60;;;22.60;46.90;;;;;;5037826;28;20386;-82
2022/05/02 08:21:27;;;;;;;6.68;4.30;;;22.80;48.10;;;;;;4997377;28;20057;-83
2022/05/02 08:27:27;;;;;;;12.98;9.38;;;24.10;46.40;;;;;;5014143;28;20440;-81
2022/05/02 08:30:06;;;;;;;7.15;4.22;;;24.80;45.30;;;;;;4997160;28;20032;-77
2022/05/02 08:32:47;;;;;;;6.07;3.90;;;24.50;45.00;;;;;;4997216;28;20034;-85
2022/05/02 08:35:44;;;;;;;8.77;4.22;;;24.60;45.70;;;;;;4997227;28;20460;-78
2022/05/02 08:38:24;;;;;;;5.90;3.88;;;23.90;46.90;;;;;;5003874;28;20052;-82
2022/05/02 08:41:08;;;;;;;6.63;4.10;;;24.30;46.00;;;;;;4997204;28;20018;-83
2022/05/02 08:43:55;;;;;;;7.18;4.57;;;23.90;45.60;;;;;;4996532;28;20095;-81
2022/05/02 08:46:40;;;;;;;8.95;4.55;;;23.90;46.50;;;;;;4996749;28;20082;-90
2022/05/02 08:49:33;;;;;;;9.95;4.18;;;23.60;47.10;;;;;;5013718;28;20560;-81
2022/05/02 08:52:17;;;;;;;5.32;3.90;;;23.30;47.00;;;;;;4997268;28;20021;-78
2022/05/02 08:55:21;;;;;;;9.07;4.55;;;23.00;47.30;;;;;;5008956;28;20032;-76
2022/05/02 08:58:24;;;;;;;7.47;3.50;;;23.50;46.70;;;;;;5031636;28;20399;-82
2022/05/02 09:01:27;;;;;;;6.30;4.10;;;23.60;46.20;;;;;;5038535;28;20052;-81
2022/05/02 09:04:06;;;;;;;5.57;4.05;;;24.10;47.30;;;;;;5037154;28;20029;-82
2022/05/02 09:06:52;;;;;;;6.25;4.18;;;24.10;47.10;;;;;;5037153;28;20486;-81
2022/05/02 09:09:47;;;;;;;5.72;4.30;;;24.30;46.60;;;;;;5037022;28;20438;-84
2022/05/02 09:12:43;;;;;;;7.25;4.20;;;24.00;46.80;;;;;;5054680;28;20070;-79
2022/05/02 09:15:31;;;;;;;5.85;3.58;;;24.20;46.70;;;;;;5055545;28;20021;-78
2022/05/02 09:18:35;;;;;;;6.20;4.20;;;24.20;46.50;;;;;;5054557;28;20354;-84
2022/05/02 09:21:16;;;;;;;7.13;4.00;;;24.20;48.00;;;;;;5054473;28;20036;-80
2022/05/02 09:24:15;;;;;;;5.28;3.25;;;24.70;46.20;;;;;;5036765;28;20112;-84
2022/05/02 09:26:44;;;;;;;4.85;3.40;;;24.70;46.90;;;;;;5057010;28;20471;-86
2022/05/02 09:29:55;;;;;;;5.05;3.50;;;25.10;45.30;;;;;;5054838;28;20017;-85
2022/05/02 09:32:43;;;;;;;4.82;3.20;;;25.40;45.00;;;;;;4980578;28;20042;-82
2022/05/02 09:35:17;;;;;;;5.10;3.22;;;25.20;44.30;;;;;;4996786;28;20030;-80
2022/05/02 09:38:20;;;;;;;6.38;3.38;;;25.50;44.90;;;;;;4996058;28;20038;-75
2022/05/02 09:40:47;;;;;;;4.50;3.00;;;25.30;45.80;;;;;;4983228;28;20095;-77
2022/05/02 09:49:50;;;;;;;6.97;3.22;;;25.10;45.00;;;;;;5012285;28;20052;-77
2022/05/02 09:52:37;;;;;;;5.80;2.85;;;25.30;44.90;;;;;;5012706;28;20100;-78
2022/05/02 09:58:15;;;;;;;4.13;2.53;;;25.80;45.20;;;;;;5012540;28;20037;-86
2022/05/02 10:01:11;;;;;;;7.15;3.03;;;26.10;44.20;;;;;;4995991;28;20026;-79
2022/05/02 10:03:48;;;;;;;5.05;2.80;;;26.20;44.40;;;;;;4996041;28;20112;-84
2022/05/02 10:06:48;;;;;;;4.97;2.80;;;25.90;45.20;;;;;;4995633;28;20033;-79
2022/05/02 10:09:32;;;;;;;3.95;2.50;;;25.70;44.60;;;;;;5019954;28;20025;-80
2022/05/02 10:12:16;;;;;;;6.05;3.03;;;25.90;44.40;;;;;;5053546;28;20094;-83
2022/05/02 10:15:02;;;;;;;9.55;2.90;;;25.70;45.00;;;;;;5053950;28;20013;-78
2022/05/02 10:17:51;;;;;;;8.10;2.90;;;26.50;45.50;;;;;;5053625;28;20017;-75
2022/05/02 10:20:19;;;;;;;4.55;2.92;;;26.50;44.10;;;;;;5053136;28;20013;-82
2022/05/02 10:23:23;;;;;;;3.90;2.90;;;27.00;42.50;;;;;;5036839;28;20021;-86
2022/05/02 10:26:37;;;;;;;4.57;3.13;;;27.70;41.40;;;;;;5053763;28;20349;-79
2022/05/02 10:29:32;;;;;;;7.20;3.00;;;28.20;39.40;;;;;;5012036;28;20037;-78
2022/05/02 10:32:06;;;;;;;5.18;2.83;;;27.80;41.00;;;;;;5011795;28;20030;-80
2022/05/02 10:34:36;;;;;;;4.30;2.70;;;29.00;39.40;;;;;;4995556;28;20018;-83
2022/05/02 10:37:05;;;;;;;4.65;3.10;;;30.10;38.60;;;;;;4994775;28;20145;-82
2022/05/02 10:39:34;;;;;;;4.70;2.80;;;31.40;37.50;;;;;;5011687;28;20044;-84
2022/05/02 10:42:04;;;;;;;4.30;2.90;;;31.60;35.70;;;;;;4995474;28;20029;-81
2022/05/02 10:44:42;;;;;;;6.00;2.42;;;30.80;36.80;;;;;;5011252;28;20041;-80
2022/05/02 10:47:11;;;;;;;9.23;2.75;;;31.20;37.00;;;;;;5012011;28;20018;-84
2022/05/02 10:50:12;;;;;;;5.53;2.92;;;31.70;37.80;;;;;;4994998;28;20504;-76
2022/05/02 10:53:04;;;;;;;4.38;2.83;;;32.00;35.00;;;;;;4995320;28;20073;-83
2022/05/02 10:55:38;;;;;;;5.55;3.00;;;31.70;35.40;;;;;;4953193;29;20070;-82
2022/05/02 10:58:09;;;;;;;6.40;2.78;;;30.50;36.70;;;;;;4937099;29;20066;-78
2022/05/02 11:00:49;;;;;;;4.50;2.80;;;29.40;38.20;;;;;;4937159;29;20035;-82
2022/05/02 11:03:15;;;;;;;4.47;2.90;;;29.20;36.40;;;;;;4936475;29;20027;-75
2022/05/02 11:06:10;;;;;;;5.35;3.10;;;28.70;37.70;;;;;;4970983;28;20042;-84
2022/05/02 11:08:50;;;;;;;4.32;2.95;;;28.50;38.00;;;;;;4972839;28;20093;-84
2022/05/02 11:11:49;;;;;;;5.28;2.90;;;27.60;37.70;;;;;;4956738;28;20019;-81
2022/05/02 11:14:54;;;;;;;5.80;2.95;;;27.20;40.60;;;;;;4954551;28;20026;-77
2022/05/02 11:17:34;;;;;;;5.63;3.03;;;27.40;38.70;;;;;;4955470;28;20045;-83
2022/05/02 11:23:22;;;;;;;6.30;3.15;;;26.50;39.30;;;;;;4972347;28;20111;-79
2022/05/02 11:26:07;;;;;;;5.72;3.03;;;27.00;39.70;;;;;;4957604;28;20130;-79
2022/05/02 11:28:38;;;;;;;4.40;3.05;;;27.40;40.10;;;;;;4959631;28;20023;-84
2022/05/02 11:31:26;;;;;;;5.25;2.90;;;26.90;40.20;;;;;;4976381;28;20417;-79
2022/05/02 11:34:10;;;;;;;4.80;2.85;;;27.10;38.50;;;;;;5056577;28;20047;-83
2022/05/02 11:36:44;;;;;;;4.28;2.80;;;27.40;38.80;;;;;;5039070;28;20040;-80
2022/05/02 11:39:21;;;;;;;5.32;3.00;;;27.20;39.00;;;;;;5038521;28;20371;-79
2022/05/02 11:41:47;;;;;;;5.28;3.08;;;26.80;38.70;;;;;;5036232;28;20021;-83
2022/05/02 11:44:14;;;;;;;4.70;2.80;;;27.00;38.90;;;;;;5038066;28;20045;-81
2022/05/02 11:47:07;;;;;;;4.78;2.83;;;27.90;37.50;;;;;;5038424;28;20048;-87
2022/05/02 11:49:39;;;;;;;5.68;2.88;;;28.60;38.10;;;;;;5038297;28;20024;-81
2022/05/02 11:52:11;;;;;;;6.03;2.78;;;29.20;36.50;;;;;;5040703;28;20063;-80
2022/05/02 11:54:39;;;;;;;6.47;2.83;;;29.40;36.00;;;;;;5056546;28;20021;-83
2022/05/02 11:57:20;;;;;;;5.10;2.88;;;29.00;38.20;;;;;;5038124;28;20013;-85
2022/05/02 11:59:59;;;;;;;7.00;2.75;;;28.40;37.80;;;;;;5038401;28;20108;-79
2022/05/02 12:02:48;;;;;;;5.95;2.85;;;27.50;37.50;;;;;;5055900;28;20013;-82
2022/05/02 12:05:19;;;;;;;5.43;3.05;;;26.90;37.20;;;;;;5057011;28;20475;-87
2022/05/02 12:07:59;;;;;;;4.15;2.80;;;27.10;37.10;;;;;;5038147;28;20032;-93
2022/05/02 12:10:43;;;;;;;4.88;3.03;;;27.50;37.60;;;;;;5056179;28;20028;-79
2022/05/02 12:13:12;;;;;;;4.00;2.90;;;28.00;36.90;;;;;;5038153;28;20020;-85
2022/05/02 12:15:57;;;;;;;5.20;2.97;;;28.90;37.00;;;;;;5038151;28;20452;-80
2022/05/02 12:18:40;;;;;;;6.55;3.10;;;29.10;37.40;;;;;;5037864;28;20533;-80
2022/05/02 12:21:07;;;;;;;8.00;3.00;;;28.90;38.30;;;;;;5038209;28;20455;-78
2022/05/02 12:23:36;;;;;;;4.85;2.53;;;27.90;38.70;;;;;;5055690;28;20124;-81
2022/05/02 12:26:05;;;;;;;8.43;3.10;;;27.60;37.30;;;;;;5037805;28;20021;-78
2022/05/02 12:28:42;;;;;;;4.78;2.90;;;26.90;39.90;;;;;;5037502;28;20099;-75
2022/05/02 12:31:15;;;;;;;5.40;2.83;;;26.50;39.80;;;;;;5056235;28;20017;-86
2022/05/02 12:33:46;;;;;;;5.22;3.05;;;27.20;40.30;;;;;;5038147;28;20020;-83
2022/05/02 12:36:16;;;;;;;;;;;28.00;39.10;;;;;;5037695;28;20379;-90
2022/05/02 12:38:52;;;;;;;6.97;3.15;;;29.00;39.00;;;;;;5037930;28;19901;-79
2022/05/02 12:41:25;;;;;;;5.68;3.05;;;29.40;37.30;;;;;;5037792;28;20025;-80
2022/05/02 12:44:04;;;;;;;7.30;3.10;;;29.30;37.20;;;;;;5054868;28;20037;-80
2022/05/02 12:46:43;;;;;;;5.35;3.00;;;29.50;37.30;;;;;;5056146;28;20026;-77
2022/05/02 12:49:16;;;;;;;4.95;2.97;;;29.70;37.40;;;;;;5037423;28;20040;-80
2022/05/02 12:51:53;;;;;;;4.18;2.80;;;29.60;37.90;;;;;;5054908;28;20025;-78
2022/05/02 12:54:21;;;;;;;4.35;2.70;;;28.90;37.40;;;;;;5037143;28;20017;-80
2022/05/02 13:02:44;;;;;;;7.78;3.20;;;29.50;38.80;;;;;;5056000;28;20102;-76
2022/05/02 13:05:18;;;;;;;5.03;2.90;;;29.70;38.20;;;;;;5055064;28;20063;-81
2022/05/02 13:07:47;;;;;;;11.50;3.15;;;29.60;38.50;;;;;;5055473;28;20017;-82
2022/05/02 13:10:34;;;;;;;6.68;2.70;;;29.90;38.30;;;;;;5055015;28;20021;-80
2022/05/02 13:13:13;;;;;;;5.40;2.70;;;29.90;37.60;;;;;;5036606;28;20426;-83
2022/05/02 13:15:40;;;;;;;4.22;2.70;;;30.10;36.70;;;;;;5037240;28;20052;-80
2022/05/02 13:18:07;;;;;;;9.70;3.20;;;29.90;38.10;;;;;;5037470;28;20521;-85
2022/05/02 13:20:33;;;;;;;5.28;2.70;;;28.90;37.60;;;;;;5036991;28;20060;-88
2022/05/02 13:23:10;;;;;;;4.93;2.90;;;29.10;38.70;;;;;;5054923;28;20463;-84
2022/05/02 13:26:11;;;;;;;8.23;2.80;;;28.20;36.00;;;;;;5054813;28;20360;-84
2022/05/02 13:28:43;;;;;;;;;;;27.90;36.60;;;;;;5036747;28;20021;-86
2022/05/02 13:31:26;;;;;;;4.30;2.72;;;27.90;37.50;;;;;;5070619;28;20247;-79
2022/05/02 13:33:55;;;;;;;4.80;2.45;;;27.80;38.50;;;;;;5037414;28;20025;-80
2022/05/02 13:36:24;;;;;;;5.13;2.70;;;27.70;37.80;;;;;;5054249;28;20032;-80
2022/05/02 13:39:22;;;;;;;4.75;2.70;;;27.20;37.80;;;;;;5036796;28;20459;-82
2022/05/02 13:41:57;;;;;;;5.03;2.80;;;27.00;37.70;;;;;;5052731;28;20025;-80
2022/05/02 13:44:52;;;;;;;5.93;2.75;;;27.60;38.50;;;;;;5053961;28;20352;-90
2022/05/02 13:47:22;;;;;;;4.70;2.90;;;27.30;37.50;;;;;;5036503;28;20028;-90
2022/05/02 13:50:12;;;;;;;4.78;2.83;;;27.30;38.50;;;;;;5053267;28;20025;-78
2022/05/02 13:52:51;;;;;;;5.28;2.70;;;27.50;37.00;;;;;;5037421;28;20053;-81